sensor_id;sensor_type;location;lat;lon;timestamp;pressure;altitude;pressure_sealevel;temperature;humidity
3796;BME280;1913;50.660;7.834;2023-04-30T00:00:03;97727.16;;;8.29;100.00
3796;BME280;1913;50.660;7.834;2023-04-30T00:02:32;97720.59;;;8.33;100.00
3796;BME280;1913;50.660;7.834;2023-04-30T00:04:58;97722.22;;;8.34;100.00
3796;BME280;1913;50.660;7.834;2023-04-30T00:07:23;97722.72;;;8.37;100.00
3796;BME280;1913;50.660;7.834;2023-04-30T00:09:49;97725.41;;;8.21;100.00
3796;BME280;1913;50.660;7.834;2023-04-30T00:12:15;97721.34;;;8.19;100.00
3796;BME280;1913;50.660;7.834;2023-04-30T00:14:41;97717.41;;;8.23;100.00
3796;BME280;1913;50.660;7.834;2023-04-30T00:17:06;97715.25;;;8.26;100.00
3796;BME280;1913;50.660;7.834;2023-04-30T00:19:31;97728.09;;;8.13;100.00
3796;BME280;1913;50.660;7.834;2023-04-30T00:21:57;97714.81;;;8.14;100.00
3796;BME280;1913;50.660;7.834;2023-04-30T00:24:26;97717.50;;;8.06;100.00
3796;BME280;1913;50.660;7.834;2023-04-30T00:26:51;97723.06;;;8.03;100.00
3796;BME280;1913;50.660;7.834;2023-04-30T00:29:17;97718.44;;;7.82;100.00
3796;BME280;1913;50.660;7.834;2023-04-30T00:31:42;97723.06;;;7.80;100.00
3796;BME280;1913;50.660;7.834;2023-04-30T00:34:07;97721.97;;;7.66;100.00
3796;BME280;1913;50.660;7.834;2023-04-30T00:36:33;97722.66;;;7.60;100.00
3796;BME280;1913;50.660;7.834;2023-04-30T00:38:58;97720.44;;;7.41;100.00
3796;BME280;1913;50.660;7.834;2023-04-30T00:41:24;97716.22;;;7.32;100.00
3796;BME280;1913;50.660;7.834;2023-04-30T00:43:50;97722.13;;;7.17;100.00
3796;BME280;1913;50.660;7.834;2023-04-30T00:46:15;97723.78;;;7.10;100.00
3796;BME280;1913;50.660;7.834;2023-04-30T00:48:41;97722.53;;;6.98;100.00
3796;BME280;1913;50.660;7.834;2023-04-30T00:51:07;97721.56;;;6.91;100.00
3796;BME280;1913;50.660;7.834;2023-04-30T00:53:33;97724.00;;;6.68;100.00
3796;BME280;1913;50.660;7.834;2023-04-30T00:55:59;97726.63;;;6.68;100.00
3796;BME280;1913;50.660;7.834;2023-04-30T00:58:24;97732.69;;;6.60;100.00
3796;BME280;1913;50.660;7.834;2023-04-30T01:00:50;97729.75;;;6.55;100.00
3796;BME280;1913;50.660;7.834;2023-04-30T01:03:16;97737.91;;;6.52;100.00
3796;BME280;1913;50.660;7.834;2023-04-30T01:05:41;97738.06;;;6.34;100.00
3796;BME280;1913;50.660;7.834;2023-04-30T01:08:08;97733.66;;;6.35;100.00
3796;BME280;1913;50.660;7.834;2023-04-30T01:10:47;97739.84;;;6.26;100.00
3796;BME280;1913;50.660;7.834;2023-04-30T01:13:29;97726.94;;;6.16;100.00
3796;BME280;1913;50.660;7.834;2023-04-30T01:15:59;97734.56;;;6.01;100.00
3796;BME280;1913;50.660;7.834;2023-04-30T01:18:32;97731.00;;;6.02;100.00
3796;BME280;1913;50.660;7.834;2023-04-30T01:21:04;97729.63;;;5.90;100.00
3796;BME280;1913;50.660;7.834;2023-04-30T01:29:19;97733.50;;;5.78;100.00
3796;BME280;1913;50.660;7.834;2023-04-30T01:31:47;97736.38;;;5.58;100.00
3796;BME280;1913;50.660;7.834;2023-04-30T01:34:12;97728.53;;;5.50;100.00
3796;BME280;1913;50.660;7.834;2023-04-30T01:36:44;97726.91;;;5.49;100.00
3796;BME280;1913;50.660;7.834;2023-04-30T01:39:36;97727.22;;;5.46;100.00
3796;BME280;1913;50.660;7.834;2023-04-30T01:42:09;97721.81;;;5.47;100.00
3796;BME280;1913;50.660;7.834;2023-04-30T01:50:19;97717.44;;;5.14;100.00
3796;BME280;1913;50.660;7.834;2023-04-30T01:52:59;97724.78;;;5.18;100.00
3796;BME280;1913;50.660;7.834;2023-04-30T01:57:59;97729.97;;;5.10;100.00
3796;BME280;1913;50.660;7.834;2023-04-30T02:00:26;97725.06;;;5.07;100.00
3796;BME280;1913;50.660;7.834;2023-04-30T02:02:52;97722.75;;;5.04;100.00
3796;BME280;1913;50.660;7.834;2023-04-30T02:05:18;97729.25;;;5.00;100.00
3796;BME280;1913;50.660;7.834;2023-04-30T02:07:45;97726.22;;;4.87;100.00
3796;BME280;1913;50.660;7.834;2023-04-30T02:10:11;97726.69;;;4.82;100.00
3796;BME280;1913;50.660;7.834;2023-04-30T02:12:37;97715.41;;;4.73;100.00
3796;BME280;1913;50.660;7.834;2023-04-30T02:15:03;97728.94;;;4.77;100.00
3796;BME280;1913;50.660;7.834;2023-04-30T02:17:29;97728.09;;;4.76;100.00
3796;BME280;1913;50.660;7.834;2023-04-30T02:19:56;97730.19;;;4.73;100.00
3796;BME280;1913;50.660;7.834;2023-04-30T02:22:21;97739.81;;;4.72;100.00
3796;BME280;1913;50.660;7.834;2023-04-30T02:24:47;97737.38;;;4.71;100.00
3796;BME280;1913;50.660;7.834;2023-04-30T02:27:13;97744.38;;;4.70;100.00
3796;BME280;1913;50.660;7.834;2023-04-30T02:29:38;97741.38;;;4.65;100.00
3796;BME280;1913;50.660;7.834;2023-04-30T02:32:04;97744.53;;;4.51;100.00
3796;BME280;1913;50.660;7.834;2023-04-30T02:34:29;97747.28;;;4.31;100.00
3796;BME280;1913;50.660;7.834;2023-04-30T02:36:54;97740.53;;;4.39;100.00
3796;BME280;1913;50.660;7.834;2023-04-30T02:39:20;97737.88;;;4.30;100.00
3796;BME280;1913;50.660;7.834;2023-04-30T02:41:45;97742.91;;;4.32;100.00
3796;BME280;1913;50.660;7.834;2023-04-30T02:44:14;97741.69;;;4.44;100.00
3796;BME280;1913;50.660;7.834;2023-04-30T02:46:39;97741.69;;;4.44;100.00
3796;BME280;1913;50.660;7.834;2023-04-30T02:49:04;97742.09;;;4.31;100.00
3796;BME280;1913;50.660;7.834;2023-04-30T02:51:30;97740.31;;;4.32;100.00
3796;BME280;1913;50.660;7.834;2023-04-30T02:53:56;97739.78;;;4.28;100.00
3796;BME280;1913;50.660;7.834;2023-04-30T02:56:22;97738.81;;;4.29;100.00
3796;BME280;1913;50.660;7.834;2023-04-30T02:58:47;97736.13;;;4.21;100.00
3796;BME280;1913;50.660;7.834;2023-04-30T03:01:13;97735.91;;;4.15;100.00
3796;BME280;1913;50.660;7.834;2023-04-30T03:03:38;97735.56;;;4.10;100.00
3796;BME280;1913;50.660;7.834;2023-04-30T03:06:04;97730.41;;;4.00;100.00
3796;BME280;1913;50.660;7.834;2023-04-30T03:08:29;97725.22;;;4.00;100.00
3796;BME280;1913;50.660;7.834;2023-04-30T03:10:55;97732.25;;;3.90;100.00
3796;BME280;1913;50.660;7.834;2023-04-30T03:13:20;97734.56;;;3.93;100.00
3796;BME280;1913;50.660;7.834;2023-04-30T03:15:45;97735.22;;;3.95;100.00
3796;BME280;1913;50.660;7.834;2023-04-30T03:18:11;97736.13;;;3.86;100.00
3796;BME280;1913;50.660;7.834;2023-04-30T03:20:36;97735.50;;;3.74;100.00
3796;BME280;1913;50.660;7.834;2023-04-30T03:23:02;97738.63;;;3.77;100.00
3796;BME280;1913;50.660;7.834;2023-04-30T03:25:27;97734.66;;;3.73;100.00
3796;BME280;1913;50.660;7.834;2023-04-30T03:27:52;97732.75;;;3.75;100.00
3796;BME280;1913;50.660;7.834;2023-04-30T03:30:18;97733.03;;;3.72;100.00
3796;BME280;1913;50.660;7.834;2023-04-30T03:32:43;97733.31;;;3.69;100.00
3796;BME280;1913;50.660;7.834;2023-04-30T03:35:09;97738.00;;;3.66;100.00
3796;BME280;1913;50.660;7.834;2023-04-30T03:37:35;97729.38;;;3.65;100.00
3796;BME280;1913;50.660;7.834;2023-04-30T03:40:00;97734.28;;;3.68;100.00
3796;BME280;1913;50.660;7.834;2023-04-30T03:42:25;97725.41;;;3.71;100.00
3796;BME280;1913;50.660;7.834;2023-04-30T03:44:51;97725.28;;;3.63;100.00
3796;BME280;1913;50.660;7.834;2023-04-30T03:47:16;97718.66;;;3.78;100.00
3796;BME280;1913;50.660;7.834;2023-04-30T03:49:42;97722.06;;;3.78;100.00
3796;BME280;1913;50.660;7.834;2023-04-30T03:52:07;97717.69;;;3.79;100.00
3796;BME280;1913;50.660;7.834;2023-04-30T03:54:32;97725.19;;;3.82;100.00
3796;BME280;1913;50.660;7.834;2023-04-30T03:56:59;97718.88;;;3.84;100.00
3796;BME280;1913;50.660;7.834;2023-04-30T03:59:24;97724.81;;;3.95;100.00
3796;BME280;1913;50.660;7.834;2023-04-30T04:01:50;97728.56;;;3.92;100.00
3796;BME280;1913;50.660;7.834;2023-04-30T04:04:16;97722.59;;;4.00;100.00
3796;BME280;1913;50.660;7.834;2023-04-30T04:06:42;97725.28;;;4.08;100.00
3796;BME280;1913;50.660;7.834;2023-04-30T04:09:07;97729.84;;;4.24;100.00
3796;BME280;1913;50.660;7.834;2023-04-30T04:11:33;97725.44;;;4.24;100.00
3796;BME280;1913;50.660;7.834;2023-04-30T04:13:59;97728.78;;;4.17;100.00
3796;BME280;1913;50.660;7.834;2023-04-30T04:16:24;97733.47;;;4.13;100.00
3796;BME280;1913;50.660;7.834;2023-04-30T04:18:50;97729.91;;;4.14;100.00
3796;BME280;1913;50.660;7.834;2023-04-30T04:21:16;97726.09;;;4.08;100.00
3796;BME280;1913;50.660;7.834;2023-04-30T04:23:42;97730.19;;;4.11;100.00
3796;BME280;1913;50.660;7.834;2023-04-30T04:26:07;97734.06;;;4.07;100.00
3796;BME280;1913;50.660;7.834;2023-04-30T04:28:34;97735.22;;;3.95;100.00
3796;BME280;1913;50.660;7.834;2023-04-30T04:31:01;97730.13;;;4.03;100.00
3796;BME280;1913;50.660;7.834;2023-04-30T04:33:27;97733.75;;;3.92;100.00
3796;BME280;1913;50.660;7.834;2023-04-30T04:35:53;97742.38;;;3.93;100.00
3796;BME280;1913;50.660;7.834;2023-04-30T04:38:18;97737.00;;;3.94;100.00
3796;BME280;1913;50.660;7.834;2023-04-30T04:40:53;97741.78;;;3.99;100.00
3796;BME280;1913;50.660;7.834;2023-04-30T04:43:19;97733.13;;;3.98;100.00
3796;BME280;1913;50.660;7.834;2023-04-30T04:45:45;97743.78;;;4.05;100.00
3796;BME280;1913;50.660;7.834;2023-04-30T04:48:11;97742.16;;;4.04;100.00
3796;BME280;1913;50.660;7.834;2023-04-30T04:50:36;97742.31;;;4.02;100.00
3796;BME280;1913;50.660;7.834;2023-04-30T04:53:02;97740.94;;;4.16;100.00
3796;BME280;1913;50.660;7.834;2023-04-30T04:55:27;97747.13;;;4.51;100.00
3796;BME280;1913;50.660;7.834;2023-04-30T04:57:53;97747.19;;;5.03;100.00
3796;BME280;1913;50.660;7.834;2023-04-30T05:00:18;97753.84;;;5.32;100.00
3796;BME280;1913;50.660;7.834;2023-04-30T05:02:46;97751.16;;;5.84;100.00
3796;BME280;1913;50.660;7.834;2023-04-30T05:05:11;97754.13;;;5.97;100.00
3796;BME280;1913;50.660;7.834;2023-04-30T05:07:37;97752.72;;;6.43;100.00
3796;BME280;1913;50.660;7.834;2023-04-30T05:10:02;97752.25;;;6.64;100.00
3796;BME280;1913;50.660;7.834;2023-04-30T05:12:28;97760.56;;;7.09;100.00
3796;BME280;1913;50.660;7.834;2023-04-30T05:14:53;97757.34;;;7.46;100.00
3796;BME280;1913;50.660;7.834;2023-04-30T05:17:18;97748.03;;;7.91;100.00
3796;BME280;1913;50.660;7.834;2023-04-30T05:19:44;97752.53;;;8.28;100.00
3796;BME280;1913;50.660;7.834;2023-04-30T05:22:12;97749.69;;;8.84;100.00
3796;BME280;1913;50.660;7.834;2023-04-30T05:24:37;97748.03;;;9.21;100.00
3796;BME280;1913;50.660;7.834;2023-04-30T05:27:02;97746.50;;;9.56;100.00
3796;BME280;1913;50.660;7.834;2023-04-30T05:29:29;97745.94;;;9.75;100.00
3796;BME280;1913;50.660;7.834;2023-04-30T05:31:55;97749.38;;;10.27;100.00
3796;BME280;1913;50.660;7.834;2023-04-30T05:34:20;97755.84;;;10.67;100.00
3796;BME280;1913;50.660;7.834;2023-04-30T05:36:45;97756.91;;;11.29;100.00
3796;BME280;1913;50.660;7.834;2023-04-30T05:39:11;97753.44;;;11.57;100.00
3796;BME280;1913;50.660;7.834;2023-04-30T05:41:36;97749.81;;;12.12;100.00
3796;BME280;1913;50.660;7.834;2023-04-30T05:44:02;97752.97;;;12.49;100.00
3796;BME280;1913;50.660;7.834;2023-04-30T05:46:29;97757.66;;;13.07;100.00
3796;BME280;1913;50.660;7.834;2023-04-30T05:48:54;97756.81;;;12.53;100.00
3796;BME280;1913;50.660;7.834;2023-04-30T05:51:20;97765.56;;;12.67;100.00
3796;BME280;1913;50.660;7.834;2023-04-30T05:53:45;97760.88;;;12.62;100.00
3796;BME280;1913;50.660;7.834;2023-04-30T05:56:11;97761.69;;;13.16;100.00
3796;BME280;1913;50.660;7.834;2023-04-30T05:58:38;97764.53;;;13.21;100.00
3796;BME280;1913;50.660;7.834;2023-04-30T06:01:03;97773.06;;;13.50;100.00
3796;BME280;1913;50.660;7.834;2023-04-30T06:03:30;97767.66;;;13.89;100.00
3796;BME280;1913;50.660;7.834;2023-04-30T06:05:55;97773.41;;;14.18;100.00
3796;BME280;1913;50.660;7.834;2023-04-30T06:08:21;97768.69;;;14.65;100.00
3796;BME280;1913;50.660;7.834;2023-04-30T06:10:47;97768.97;;;14.57;100.00
3796;BME280;1913;50.660;7.834;2023-04-30T06:13:13;97770.75;;;14.63;100.00
3796;BME280;1913;50.660;7.834;2023-04-30T06:15:39;97770.91;;;14.68;100.00
3796;BME280;1913;50.660;7.834;2023-04-30T06:18:06;97778.47;;;15.40;97.73
3796;BME280;1913;50.660;7.834;2023-04-30T06:20:31;97780.78;;;15.54;90.64
3796;BME280;1913;50.660;7.834;2023-04-30T06:22:57;97786.63;;;15.82;84.82
3796;BME280;1913;50.660;7.834;2023-04-30T06:25:22;97785.84;;;15.81;79.86
3796;BME280;1913;50.660;7.834;2023-04-30T06:27:48;97783.03;;;15.94;82.07
3796;BME280;1913;50.660;7.834;2023-04-30T06:30:15;97783.59;;;16.33;71.37
3796;BME280;1913;50.660;7.834;2023-04-30T06:32:41;97787.44;;;16.19;68.52
3796;BME280;1913;50.660;7.834;2023-04-30T06:35:07;97779.72;;;16.47;75.15
3796;BME280;1913;50.660;7.834;2023-04-30T06:37:33;97779.00;;;16.40;70.56
3796;BME280;1913;50.660;7.834;2023-04-30T06:40:05;97775.47;;;15.98;73.52
3796;BME280;1913;50.660;7.834;2023-04-30T06:42:31;97769.19;;;15.74;80.35
3796;BME280;1913;50.660;7.834;2023-04-30T06:45:02;97774.72;;;15.91;76.23
3796;BME280;1913;50.660;7.834;2023-04-30T06:47:31;97768.47;;;15.67;65.58
3796;BME280;1913;50.660;7.834;2023-04-30T06:50:02;97772.72;;;15.86;80.48
3796;BME280;1913;50.660;7.834;2023-04-30T06:52:29;97772.72;;;15.24;74.70
3796;BME280;1913;50.660;7.834;2023-04-30T06:54:54;97764.25;;;15.16;70.34
3796;BME280;1913;50.660;7.834;2023-04-30T06:57:20;97775.38;;;14.74;75.75
3796;BME280;1913;50.660;7.834;2023-04-30T06:59:45;97764.25;;;14.21;69.23
3796;BME280;1913;50.660;7.834;2023-04-30T07:02:11;97758.97;;;14.66;80.25
3796;BME280;1913;50.660;7.834;2023-04-30T07:04:36;97770.94;;;14.93;71.59
3796;BME280;1913;50.660;7.834;2023-04-30T07:07:02;97771.00;;;15.12;67.62
3796;BME280;1913;50.660;7.834;2023-04-30T07:09:30;97767.28;;;14.94;63.57
3796;BME280;1913;50.660;7.834;2023-04-30T07:11:59;97772.31;;;15.02;61.52
3796;BME280;1913;50.660;7.834;2023-04-30T07:14:25;97774.19;;;15.20;70.19
3796;BME280;1913;50.660;7.834;2023-04-30T07:16:51;97769.78;;;15.32;57.14
3796;BME280;1913;50.660;7.834;2023-04-30T07:19:16;97768.00;;;15.51;58.41
3796;BME280;1913;50.660;7.834;2023-04-30T07:21:42;97766.47;;;15.80;58.35
3796;BME280;1913;50.660;7.834;2023-04-30T07:24:07;97766.81;;;16.02;57.83
3796;BME280;1913;50.660;7.834;2023-04-30T07:26:33;97765.63;;;16.47;54.52
3796;BME280;1913;50.660;7.834;2023-04-30T07:28:58;97763.03;;;16.59;55.15
3796;BME280;1913;50.660;7.834;2023-04-30T07:31:25;97761.16;;;16.47;51.61
3796;BME280;1913;50.660;7.834;2023-04-30T07:33:51;97750.78;;;16.99;52.80
3796;BME280;1913;50.660;7.834;2023-04-30T07:36:16;97753.91;;;17.32;54.21
3796;BME280;1913;50.660;7.834;2023-04-30T07:38:42;97761.75;;;17.15;46.00
3796;BME280;1913;50.660;7.834;2023-04-30T07:41:09;97762.50;;;17.74;45.77
3796;BME280;1913;50.660;7.834;2023-04-30T07:43:35;97763.09;;;17.88;47.08
3796;BME280;1913;50.660;7.834;2023-04-30T07:46:01;97762.47;;;18.09;44.85
3796;BME280;1913;50.660;7.834;2023-04-30T07:48:48;97763.47;;;17.80;42.02
3796;BME280;1913;50.660;7.834;2023-04-30T07:51:14;97767.03;;;17.85;41.70
3796;BME280;1913;50.660;7.834;2023-04-30T07:53:39;97770.50;;;17.74;42.37
3796;BME280;1913;50.660;7.834;2023-04-30T07:56:05;97764.19;;;17.52;41.46
3796;BME280;1913;50.660;7.834;2023-04-30T07:58:32;97764.63;;;17.02;41.91
3796;BME280;1913;50.660;7.834;2023-04-30T08:00:57;97762.69;;;17.44;44.85
3796;BME280;1913;50.660;7.834;2023-04-30T08:03:23;97768.56;;;17.58;42.31
3796;BME280;1913;50.660;7.834;2023-04-30T08:05:48;97770.63;;;17.32;45.22
3796;BME280;1913;50.660;7.834;2023-04-30T08:08:14;97765.78;;;17.17;44.12
3796;BME280;1913;50.660;7.834;2023-04-30T08:10:39;97764.41;;;17.62;47.08
3796;BME280;1913;50.660;7.834;2023-04-30T08:13:06;97760.22;;;17.78;44.84
3796;BME280;1913;50.660;7.834;2023-04-30T08:15:35;97772.25;;;17.80;42.38
3796;BME280;1913;50.660;7.834;2023-04-30T08:18:02;97766.50;;;18.40;42.58
3796;BME280;1913;50.660;7.834;2023-04-30T08:20:31;97772.91;;;18.85;42.02
3796;BME280;1913;50.660;7.834;2023-04-30T08:22:57;97769.06;;;18.07;41.66
3796;BME280;1913;50.660;7.834;2023-04-30T08:25:22;97769.13;;;18.52;41.32
3796;BME280;1913;50.660;7.834;2023-04-30T08:27:48;97769.25;;;18.17;41.95
3796;BME280;1913;50.660;7.834;2023-04-30T08:30:13;97768.13;;;18.13;40.49
3796;BME280;1913;50.660;7.834;2023-04-30T08:32:40;97774.72;;;18.39;42.90
3796;BME280;1913;50.660;7.834;2023-04-30T08:35:06;97774.09;;;18.20;41.17
3796;BME280;1913;50.660;7.834;2023-04-30T08:37:32;97777.81;;;18.19;42.08
3796;BME280;1913;50.660;7.834;2023-04-30T08:39:58;97774.75;;;18.56;40.59
3796;BME280;1913;50.660;7.834;2023-04-30T08:42:25;97771.03;;;18.40;41.17
3796;BME280;1913;50.660;7.834;2023-04-30T08:44:54;97766.44;;;18.81;38.96
3796;BME280;1913;50.660;7.834;2023-04-30T08:47:19;97765.72;;;19.19;38.30
3796;BME280;1913;50.660;7.834;2023-04-30T08:49:46;97768.66;;;19.56;38.94
3796;BME280;1913;50.660;7.834;2023-04-30T08:52:11;97760.34;;;19.14;37.38
3796;BME280;1913;50.660;7.834;2023-04-30T08:54:37;97766.53;;;19.20;37.78
3796;BME280;1913;50.660;7.834;2023-04-30T08:57:03;97765.31;;;19.83;36.83
3796;BME280;1913;50.660;7.834;2023-04-30T08:59:29;97761.34;;;20.07;36.53
3796;BME280;1913;50.660;7.834;2023-04-30T09:01:55;97762.56;;;20.22;36.98
3796;BME280;1913;50.660;7.834;2023-04-30T09:04:20;97765.25;;;19.61;36.14
3796;BME280;1913;50.660;7.834;2023-04-30T09:06:46;97766.69;;;20.07;35.64
3796;BME280;1913;50.660;7.834;2023-04-30T09:09:13;97757.47;;;19.98;37.36
3796;BME280;1913;50.660;7.834;2023-04-30T09:11:39;97760.25;;;20.30;35.41
3796;BME280;1913;50.660;7.834;2023-04-30T09:14:05;97751.78;;;19.90;36.18
3796;BME280;1913;50.660;7.834;2023-04-30T09:16:48;97753.53;;;20.01;35.09
3796;BME280;1913;50.660;7.834;2023-04-30T09:19:26;97757.66;;;20.36;34.44
3796;BME280;1913;50.660;7.834;2023-04-30T09:21:54;97756.84;;;20.89;33.59
3796;BME280;1913;50.660;7.834;2023-04-30T09:24:22;97758.75;;;20.94;33.47
3796;BME280;1913;50.660;7.834;2023-04-30T09:26:49;97756.84;;;20.89;34.29
3796;BME280;1913;50.660;7.834;2023-04-30T09:29:15;97753.47;;;21.41;34.53
3796;BME280;1913;50.660;7.834;2023-04-30T09:31:43;97753.09;;;20.90;32.58
3796;BME280;1913;50.660;7.834;2023-04-30T09:34:09;97744.44;;;21.10;31.76
3796;BME280;1913;50.660;7.834;2023-04-30T09:36:35;97754.22;;;21.79;32.93
3796;BME280;1913;50.660;7.834;2023-04-30T09:39:11;97751.09;;;21.45;32.52
3796;BME280;1913;50.660;7.834;2023-04-30T09:41:38;97748.06;;;21.79;32.06
3796;BME280;1913;50.660;7.834;2023-04-30T09:44:03;97750.34;;;21.49;32.50
3796;BME280;1913;50.660;7.834;2023-04-30T09:46:33;97742.78;;;21.41;32.12
3796;BME280;1913;50.660;7.834;2023-04-30T09:49:04;97744.75;;;21.19;33.67
3796;BME280;1913;50.660;7.834;2023-04-30T09:51:30;97744.69;;;20.76;32.83
3796;BME280;1913;50.660;7.834;2023-04-30T09:53:56;97736.53;;;21.31;34.49
3796;BME280;1913;50.660;7.834;2023-04-30T09:56:24;97738.00;;;21.06;32.98
3796;BME280;1913;50.660;7.834;2023-04-30T09:58:54;97731.66;;;21.17;32.40
3796;BME280;1913;50.660;7.834;2023-04-30T10:01:24;97726.50;;;20.19;34.44
3796;BME280;1913;50.660;7.834;2023-04-30T10:03:51;97724.56;;;20.64;34.37
3796;BME280;1913;50.660;7.834;2023-04-30T10:06:21;97733.44;;;20.69;33.86
3796;BME280;1913;50.660;7.834;2023-04-30T10:09:10;97724.44;;;21.18;33.64
3796;BME280;1913;50.660;7.834;2023-04-30T10:11:42;97725.69;;;21.42;32.41
3796;BME280;1913;50.660;7.834;2023-04-30T10:14:12;97715.88;;;22.21;31.12
3796;BME280;1913;50.660;7.834;2023-04-30T10:19:23;97707.59;;;22.33;32.88
3796;BME280;1913;50.660;7.834;2023-04-30T10:21:51;97713.22;;;22.46;30.25
3796;BME280;1913;50.660;7.834;2023-04-30T10:24:20;97716.84;;;22.05;29.90
3796;BME280;1913;50.660;7.834;2023-04-30T10:26:46;97714.19;;;21.99;30.84
3796;BME280;1913;50.660;7.834;2023-04-30T10:29:13;97706.06;;;21.79;30.25
3796;BME280;1913;50.660;7.834;2023-04-30T10:31:47;97706.91;;;21.90;33.99
3796;BME280;1913;50.660;7.834;2023-04-30T10:34:28;97706.88;;;21.74;32.57
3796;BME280;1913;50.660;7.834;2023-04-30T10:37:10;97709.22;;;21.66;32.34
3796;BME280;1913;50.660;7.834;2023-04-30T10:39:37;97701.91;;;22.14;33.28
3796;BME280;1913;50.660;7.834;2023-04-30T10:42:04;97695.94;;;21.91;31.66
3796;BME280;1913;50.660;7.834;2023-04-30T10:44:35;97697.13;;;22.21;31.58
3796;BME280;1913;50.660;7.834;2023-04-30T10:47:02;97695.75;;;22.13;33.75
3796;BME280;1913;50.660;7.834;2023-04-30T10:49:28;97688.81;;;22.22;31.80
3796;BME280;1913;50.660;7.834;2023-04-30T10:51:58;97691.25;;;22.24;31.21
3796;BME280;1913;50.660;7.834;2023-04-30T10:57:14;97695.41;;;20.89;31.13
3796;BME280;1913;50.660;7.834;2023-04-30T10:59:42;97685.81;;;20.93;33.00
3796;BME280;1913;50.660;7.834;2023-04-30T11:02:14;97682.56;;;20.54;34.35
3796;BME280;1913;50.660;7.834;2023-04-30T11:07:35;97678.53;;;21.84;35.51
3796;BME280;1913;50.660;7.834;2023-04-30T11:10:02;97665.72;;;21.86;33.20
3796;BME280;1913;50.660;7.834;2023-04-30T11:12:28;97679.59;;;21.30;33.79
3796;BME280;1913;50.660;7.834;2023-04-30T11:15:20;97659.22;;;21.66;33.04
3796;BME280;1913;50.660;7.834;2023-04-30T11:17:50;97668.50;;;22.21;32.98
3796;BME280;1913;50.660;7.834;2023-04-30T11:20:20;97661.00;;;23.00;31.62
3796;BME280;1913;50.660;7.834;2023-04-30T11:22:47;97668.91;;;23.51;30.89
3796;BME280;1913;50.660;7.834;2023-04-30T11:25:17;97661.84;;;24.25;29.79
3796;BME280;1913;50.660;7.834;2023-04-30T11:27:44;97662.22;;;24.53;30.16
3796;BME280;1913;50.660;7.834;2023-04-30T11:30:14;97667.16;;;22.90;29.92
3796;BME280;1913;50.660;7.834;2023-04-30T11:32:43;97657.28;;;21.46;30.75
3796;BME280;1913;50.660;7.834;2023-04-30T11:35:10;97645.94;;;21.29;31.79
3796;BME280;1913;50.660;7.834;2023-04-30T11:37:40;97652.44;;;22.27;35.67
3796;BME280;1913;50.660;7.834;2023-04-30T11:40:10;97644.41;;;22.57;31.10
3796;BME280;1913;50.660;7.834;2023-04-30T11:42:36;97649.50;;;22.74;31.81
3796;BME280;1913;50.660;7.834;2023-04-30T11:50:09;97639.25;;;23.87;30.35
3796;BME280;1913;50.660;7.834;2023-04-30T11:52:36;97639.25;;;23.12;29.42
3796;BME280;1913;50.660;7.834;2023-04-30T11:55:13;97637.50;;;21.47;32.15
3796;BME280;1913;50.660;7.834;2023-04-30T11:57:47;97628.69;;;20.99;34.15
3796;BME280;1913;50.660;7.834;2023-04-30T12:00:18;97627.38;;;21.60;33.93
3796;BME280;1913;50.660;7.834;2023-04-30T12:02:45;97635.69;;;21.68;33.61
3796;BME280;1913;50.660;7.834;2023-04-30T12:05:21;97628.59;;;22.15;33.50
3796;BME280;1913;50.660;7.834;2023-04-30T12:07:55;97627.94;;;21.77;33.49
3796;BME280;1913;50.660;7.834;2023-04-30T12:10:21;97631.75;;;20.81;34.49
3796;BME280;1913;50.660;7.834;2023-04-30T12:12:48;97627.69;;;20.41;35.41
3796;BME280;1913;50.660;7.834;2023-04-30T12:15:23;97635.41;;;19.78;36.43
3796;BME280;1913;50.660;7.834;2023-04-30T12:17:56;97625.59;;;20.43;35.88
3796;BME280;1913;50.660;7.834;2023-04-30T12:20:29;97635.69;;;19.38;36.66
3796;BME280;1913;50.660;7.834;2023-04-30T12:22:56;97630.69;;;19.03;37.94
3796;BME280;1913;50.660;7.834;2023-04-30T12:25:23;97631.22;;;18.83;38.90
3796;BME280;1913;50.660;7.834;2023-04-30T12:27:51;97630.97;;;19.45;41.25
3796;BME280;1913;50.660;7.834;2023-04-30T12:30:24;97630.75;;;20.23;39.04
3796;BME280;1913;50.660;7.834;2023-04-30T12:32:52;97631.06;;;21.48;33.65
3796;BME280;1913;50.660;7.834;2023-04-30T12:35:21;97622.16;;;22.16;32.67
3796;BME280;1913;50.660;7.834;2023-04-30T12:37:53;97623.50;;;22.75;32.47
3796;BME280;1913;50.660;7.834;2023-04-30T12:40:20;97625.50;;;21.60;32.52
3796;BME280;1913;50.660;7.834;2023-04-30T12:42:46;97628.69;;;20.99;33.48
3796;BME280;1913;50.660;7.834;2023-04-30T12:48:17;97616.47;;;20.07;34.32
3796;BME280;1913;50.660;7.834;2023-04-30T12:50:59;97614.22;;;19.94;35.54
3796;BME280;1913;50.660;7.834;2023-04-30T12:53:26;97609.72;;;20.59;35.35
3796;BME280;1913;50.660;7.834;2023-04-30T12:56:15;97613.69;;;20.98;36.62
3796;BME280;1913;50.660;7.834;2023-04-30T12:58:42;97613.31;;;21.27;34.57
3796;BME280;1913;50.660;7.834;2023-04-30T13:01:15;97607.63;;;21.71;35.02
3796;BME280;1913;50.660;7.834;2023-04-30T13:03:40;97606.34;;;20.73;35.82
3796;BME280;1913;50.660;7.834;2023-04-30T13:06:06;97602.94;;;20.46;34.97
3796;BME280;1913;50.660;7.834;2023-04-30T13:08:31;97600.97;;;20.68;35.49
3796;BME280;1913;50.660;7.834;2023-04-30T13:10:57;97601.25;;;20.72;33.51
3796;BME280;1913;50.660;7.834;2023-04-30T13:13:23;97594.50;;;20.27;34.71
3796;BME280;1913;50.660;7.834;2023-04-30T13:15:51;97596.75;;;20.45;35.68
3796;BME280;1913;50.660;7.834;2023-04-30T13:18:17;97605.81;;;20.39;34.35
3796;BME280;1913;50.660;7.834;2023-04-30T13:20:43;97587.75;;;20.94;32.91
3796;BME280;1913;50.660;7.834;2023-04-30T13:23:09;97589.63;;;21.51;37.31
3796;BME280;1913;50.660;7.834;2023-04-30T13:25:36;97592.94;;;21.94;33.42
3796;BME280;1913;50.660;7.834;2023-04-30T13:28:02;97587.91;;;22.54;33.40
3796;BME280;1913;50.660;7.834;2023-04-30T13:30:28;97583.56;;;22.99;33.32
3796;BME280;1913;50.660;7.834;2023-04-30T13:32:54;97583.09;;;22.25;32.54
3796;BME280;1913;50.660;7.834;2023-04-30T13:35:19;97582.75;;;21.02;31.93
3796;BME280;1913;50.660;7.834;2023-04-30T13:37:45;97590.81;;;20.70;34.02
3796;BME280;1913;50.660;7.834;2023-04-30T13:40:13;97587.28;;;19.46;35.76
3796;BME280;1913;50.660;7.834;2023-04-30T13:42:40;97581.16;;;19.02;37.16
3796;BME280;1913;50.660;7.834;2023-04-30T13:45:07;97580.94;;;19.52;39.51
3796;BME280;1913;50.660;7.834;2023-04-30T13:47:36;97568.56;;;20.22;36.61
3796;BME280;1913;50.660;7.834;2023-04-30T13:50:02;97557.75;;;21.34;35.06
3796;BME280;1913;50.660;7.834;2023-04-30T13:52:28;97563.22;;;21.60;33.76